Time;durP1;ratioP1;P1;durP2;ratioP2;P2;SDS_P1;SDS_P2;PMS_P1;PMS_P2;Temp;Humidity;BMP_temperature;BMP_pressure;BME280_temperature;BME280_humidity;BME280_pressure;Samples;Min_cycle;Max_cycle;Signal;HPM_P1;HPM_P2
2021/12/12 00:09:44;;;;;;;5.30;3.87;;;4.00;82.20;;;;;;5076325;27;20295;-48
2021/12/12 00:12:17;;;;;;;4.50;4.10;;;4.20;80.70;;;;;;5062849;28;20494;-48
2021/12/12 00:14:44;;;;;;;5.90;4.03;;;4.10;81.00;;;;;;5016561;28;20874;-48
2021/12/12 00:17:12;;;;;;;6.70;4.37;;;4.10;81.30;;;;;;5041630;28;20509;-48
2021/12/12 00:19:39;;;;;;;7.87;4.40;;;4.00;81.60;;;;;;5041197;28;20458;-48
2021/12/12 00:22:11;;;;;;;4.47;4.03;;;3.90;81.90;;;;;;5038870;28;20808;-48
2021/12/12 00:24:38;;;;;;;3.80;3.40;;;3.90;82.00;;;;;;5036174;28;20455;-48
2021/12/12 00:27:06;;;;;;;3.33;3.03;;;3.80;82.30;;;;;;5031008;28;21363;-48
2021/12/12 00:29:33;;;;;;;4.13;3.50;;;3.80;82.30;;;;;;5034386;28;20454;-48
2021/12/12 00:32:05;;;;;;;3.70;3.47;;;3.80;82.30;;;;;;5038256;28;20462;-48
2021/12/12 00:34:38;;;;;;;4.80;4.40;;;3.80;82.30;;;;;;5041452;28;20800;-48
2021/12/12 00:37:08;;;;;;;4.90;3.93;;;3.80;82.40;;;;;;5035562;28;20462;-48
2021/12/12 00:39:37;;;;;;;5.00;3.67;;;3.80;82.40;;;;;;5040788;28;20827;-48
2021/12/12 00:42:13;;;;;;;7.37;4.17;;;3.80;82.30;;;;;;5038301;28;21014;-48
2021/12/12 00:44:45;;;;;;;7.23;5.03;;;3.80;82.30;;;;;;5053164;28;20446;-48
2021/12/12 00:47:13;;;;;;;4.07;3.67;;;3.70;82.50;;;;;;5036857;28;20473;-48
2021/12/12 00:50:04;;;;;;;5.13;4.47;;;3.70;82.40;;;;;;5035246;28;20455;-48
2021/12/12 00:52:31;;;;;;;11.63;3.83;;;3.70;82.40;;;;;;5036403;28;20457;-48
2021/12/12 00:54:59;;;;;;;8.03;4.27;;;3.70;82.60;;;;;;5038555;28;20546;-48
2021/12/12 00:57:27;;;;;;;5.33;4.00;;;3.70;82.60;;;;;;5038089;28;21060;-48
2021/12/12 00:59:53;;;;;;;7.87;4.33;;;3.70;82.90;;;;;;5018788;28;20485;-48
2021/12/12 01:02:25;;;;;;;7.50;4.03;;;3.80;82.70;;;;;;5018023;28;20968;-48
2021/12/12 01:04:56;;;;;;;6.67;4.73;;;3.80;82.80;;;;;;5017675;28;20460;-48
2021/12/12 01:07:30;;;;;;;7.77;5.70;;;3.70;82.80;;;;;;5021113;28;20793;-48
2021/12/12 01:10:11;;;;;;;5.87;4.30;;;3.80;82.70;;;;;;5012198;28;20550;-47
2021/12/12 01:12:39;;;;;;;9.10;4.50;;;3.70;83.20;;;;;;5022296;28;20455;-48
2021/12/12 01:15:38;;;;;;;5.70;5.10;;;3.70;83.60;;;;;;5010689;28;20914;-48
2021/12/12 01:18:10;;;;;;;15.73;4.57;;;3.70;83.80;;;;;;5018718;28;20525;-48
2021/12/12 01:20:50;;;;;;;7.73;4.50;;;3.80;83.90;;;;;;5006804;28;20463;-48
2021/12/12 01:23:49;;;;;;;5.73;4.53;;;3.70;83.90;;;;;;5008598;28;20843;-48
2021/12/12 01:26:17;;;;;;;9.07;4.60;;;3.80;84.00;;;;;;5025359;28;20467;-48
2021/12/12 01:28:46;;;;;;;6.47;4.03;;;3.70;84.10;;;;;;5023525;28;20984;-48
2021/12/12 01:31:23;;;;;;;11.37;5.23;;;3.70;84.10;;;;;;5024250;28;20474;-47
2021/12/12 01:33:59;;;;;;;14.17;5.07;;;3.70;84.10;;;;;;5023941;28;20463;-48
2021/12/12 01:36:45;;;;;;;11.80;5.67;;;3.70;84.20;;;;;;5023326;28;20983;-48
2021/12/12 01:39:13;;;;;;;6.47;4.80;;;3.70;84.30;;;;;;5024269;28;20556;-48
2021/12/12 01:41:50;;;;;;;8.10;5.27;;;3.70;84.30;;;;;;4992730;28;20486;-48
2021/12/12 01:44:26;;;;;;;8.37;5.30;;;3.70;84.20;;;;;;5021564;28;20470;-48
2021/12/12 01:47:08;;;;;;;8.47;4.70;;;3.70;84.20;;;;;;5023335;28;20964;-48
2021/12/12 01:49:38;;;;;;;7.13;5.00;;;3.70;84.20;;;;;;4988357;28;20459;-48
2021/12/12 01:52:10;;;;;;;7.43;5.00;;;3.70;84.20;;;;;;5023302;28;21133;-48
2021/12/12 01:54:45;;;;;;;6.47;5.00;;;3.70;84.30;;;;;;5024815;28;20461;-48
2021/12/12 01:57:32;;;;;;;9.83;6.77;;;3.70;84.10;;;;;;5005654;28;21658;-48
2021/12/12 02:00:04;;;;;;;11.50;5.27;;;3.70;84.10;;;;;;5006647;28;20924;-48
2021/12/12 02:02:33;;;;;;;4.77;4.30;;;3.60;84.20;;;;;;5022251;28;20468;-48
2021/12/12 02:05:11;;;;;;;6.27;5.13;;;3.60;84.10;;;;;;5023110;28;20595;-48
2021/12/12 02:07:41;;;;;;;9.00;5.00;;;3.60;84.20;;;;;;5024098;28;20458;-48
2021/12/12 02:10:21;;;;;;;7.00;4.47;;;3.60;84.10;;;;;;5021407;28;20845;-48
2021/12/12 02:12:49;;;;;;;5.40;4.90;;;3.60;84.20;;;;;;5025011;28;20681;-48
2021/12/12 02:15:18;;;;;;;10.37;6.80;;;3.50;84.10;;;;;;5007421;28;20548;-48
2021/12/12 02:17:48;;;;;;;7.83;5.10;;;3.50;84.10;;;;;;4996858;28;20890;-48
2021/12/12 02:20:27;;;;;;;7.07;6.00;;;3.50;84.00;;;;;;5021456;28;20469;-47
2021/12/12 02:36:37;;;;;;;8.97;6.20;;;3.30;84.30;;;;;;5023639;28;20463;-48
2021/12/12 02:39:08;;;;;;;11.03;7.23;;;3.30;84.40;;;;;;5023609;28;20483;-48
2021/12/12 02:41:35;;;;;;;13.80;8.00;;;3.30;84.40;;;;;;5013461;28;20461;-48
2021/12/12 02:44:05;;;;;;;12.23;8.83;;;3.30;84.00;;;;;;5005282;28;20785;-48
2021/12/12 02:46:35;;;;;;;12.17;8.67;;;3.30;84.40;;;;;;5008775;28;20444;-48
2021/12/12 02:49:09;;;;;;;10.17;8.50;;;3.20;84.50;;;;;;5022138;28;20486;-48
2021/12/12 02:51:40;;;;;;;11.27;7.40;;;3.20;84.70;;;;;;5011593;28;20467;-48
2021/12/12 02:54:09;;;;;;;9.07;7.20;;;3.10;84.90;;;;;;5021202;28;20451;-48
2021/12/12 02:56:44;;;;;;;9.10;7.13;;;3.10;85.00;;;;;;5024307;28;20449;-48
2021/12/12 02:59:15;;;;;;;11.20;7.50;;;3.20;85.00;;;;;;5023434;28;20503;-48
2021/12/12 03:01:48;;;;;;;6.70;6.00;;;3.20;85.10;;;;;;5023247;28;20940;-48
2021/12/12 03:04:15;;;;;;;9.17;6.40;;;3.20;84.90;;;;;;5027101;28;20475;-52
2021/12/12 03:06:43;;;;;;;11.60;6.50;;;3.10;85.00;;;;;;5027259;28;20979;-53
2021/12/12 03:09:17;;;;;;;7.80;5.83;;;3.10;85.10;;;;;;5022212;28;20472;-52
2021/12/12 03:11:46;;;;;;;7.73;6.40;;;3.10;85.30;;;;;;5022618;28;20461;-53
2021/12/12 03:14:13;;;;;;;8.27;6.50;;;3.10;85.30;;;;;;5021942;28;20470;-53
2021/12/12 03:16:40;;;;;;;13.33;6.23;;;3.10;85.40;;;;;;4989160;28;20880;-53
2021/12/12 03:19:07;;;;;;;6.67;5.40;;;3.20;85.50;;;;;;5007457;28;20484;-53
2021/12/12 03:21:37;;;;;;;13.07;6.10;;;3.20;85.60;;;;;;5023281;28;20460;-53
2021/12/12 03:24:09;;;;;;;8.60;5.20;;;3.20;85.70;;;;;;5006426;28;20470;-53
2021/12/12 03:26:37;;;;;;;5.93;5.33;;;3.20;85.70;;;;;;5022891;28;20459;-53
2021/12/12 03:29:06;;;;;;;7.20;5.20;;;3.20;85.70;;;;;;5008222;28;20468;-48
2021/12/12 03:31:37;;;;;;;9.63;5.50;;;3.20;85.80;;;;;;5009333;28;20469;-48
2021/12/12 03:34:07;;;;;;;8.67;5.60;;;3.30;85.80;;;;;;5017971;28;21050;-48
2021/12/12 03:36:34;;;;;;;9.90;5.40;;;3.30;85.80;;;;;;5008563;28;20466;-48
2021/12/12 03:39:17;;;;;;;12.13;5.97;;;3.30;86.00;;;;;;5011782;28;20482;-48
2021/12/12 03:41:44;;;;;;;11.07;6.10;;;3.40;86.00;;;;;;5020467;28;20474;-48
2021/12/12 03:44:16;;;;;;;9.80;6.10;;;3.40;85.90;;;;;;5006431;28;20830;-48
2021/12/12 03:46:45;;;;;;;6.00;4.97;;;3.40;86.10;;;;;;5023511;28;20872;-48
2021/12/12 03:49:12;;;;;;;8.20;5.30;;;3.40;86.10;;;;;;5026382;28;20447;-48
2021/12/12 03:51:41;;;;;;;8.27;6.63;;;3.40;86.10;;;;;;5027298;28;20464;-48
2021/12/12 03:54:08;;;;;;;6.90;5.07;;;3.40;86.10;;;;;;5025121;28;20460;-48
2021/12/12 03:56:36;;;;;;;6.63;5.20;;;3.50;86.00;;;;;;5008220;28;20455;-48
2021/12/12 03:59:04;;;;;;;7.77;5.63;;;3.50;86.00;;;;;;5007570;28;20491;-48
2021/12/12 04:01:37;;;;;;;9.90;5.80;;;3.50;86.00;;;;;;5022542;28;20459;-48
2021/12/12 04:04:12;;;;;;;12.77;5.53;;;3.50;86.00;;;;;;5019035;28;20823;-48
2021/12/12 04:06:40;;;;;;;10.07;5.90;;;3.50;86.10;;;;;;5003197;28;20889;-48
2021/12/12 04:09:09;;;;;;;13.40;6.10;;;3.50;86.00;;;;;;5025145;28;20467;-48
2021/12/12 04:11:44;;;;;;;6.27;5.00;;;3.60;85.80;;;;;;5029044;28;20885;-48
2021/12/12 04:14:12;;;;;;;10.70;5.80;;;3.60;85.80;;;;;;4992093;28;20471;-48
2021/12/12 04:16:42;;;;;;;11.17;5.57;;;3.60;85.90;;;;;;5022324;28;20471;-48
2021/12/12 04:19:10;;;;;;;8.93;6.93;;;3.60;85.90;;;;;;5024506;28;20479;-48
2021/12/12 04:21:38;;;;;;;7.00;5.40;;;3.60;86.00;;;;;;5004740;28;20467;-48
2021/12/12 04:24:06;;;;;;;8.17;6.90;;;3.60;86.00;;;;;;5022552;28;20463;-48
2021/12/12 04:26:42;;;;;;;6.93;5.30;;;3.60;86.10;;;;;;5024956;28;20458;-48
2021/12/12 04:29:17;;;;;;;10.93;6.93;;;3.60;86.10;;;;;;5023729;28;20490;-48
2021/12/12 04:31:50;;;;;;;16.40;6.20;;;3.60;86.00;;;;;;5024378;28;20472;-48
2021/12/12 04:34:20;;;;;;;7.60;6.07;;;3.60;86.00;;;;;;5022964;28;21035;-48
2021/12/12 04:36:48;;;;;;;10.17;5.30;;;3.60;86.00;;;;;;5021825;28;20471;-48
2021/12/12 04:39:19;;;;;;;9.77;5.73;;;3.70;85.90;;;;;;5025643;28;20484;-48
2021/12/12 04:41:48;;;;;;;8.73;6.70;;;3.70;85.90;;;;;;5016753;28;20459;-48
2021/12/12 04:44:29;;;;;;;11.00;5.77;;;3.70;85.90;;;;;;5020004;28;20466;-48
2021/12/12 04:50:35;;;;;;;8.50;6.20;;;3.70;86.00;;;;;;5031458;28;20813;-48
2021/12/12 04:53:10;;;;;;;9.30;5.30;;;3.70;86.00;;;;;;5025984;28;20462;-48
2021/12/12 04:55:51;;;;;;;9.43;6.90;;;3.80;85.90;;;;;;5011452;28;20822;-48
2021/12/12 04:58:26;;;;;;;6.87;5.63;;;3.80;85.80;;;;;;5024042;28;20838;-48
2021/12/12 05:00:59;;;;;;;8.27;5.60;;;3.80;85.80;;;;;;5009151;28;20455;-48
2021/12/12 05:03:39;;;;;;;8.20;5.27;;;3.80;85.80;;;;;;4996858;28;20963;-48
2021/12/12 05:06:13;;;;;;;7.70;5.63;;;3.80;85.80;;;;;;5028869;28;20476;-48
2021/12/12 05:08:58;;;;;;;6.57;5.40;;;3.80;85.80;;;;;;5009831;28;20999;-48
2021/12/12 05:11:33;;;;;;;7.23;5.37;;;3.80;85.80;;;;;;5023318;28;20968;-48
2021/12/12 05:14:09;;;;;;;9.17;5.80;;;3.80;85.80;;;;;;5021599;28;20454;-48
2021/12/12 05:16:40;;;;;;;6.90;5.13;;;3.80;85.80;;;;;;5026055;28;20796;-49
2021/12/12 05:19:15;;;;;;;7.77;4.90;;;3.70;85.80;;;;;;5008556;28;20487;-49
2021/12/12 05:21:52;;;;;;;14.40;5.60;;;3.80;85.70;;;;;;5023545;28;20451;-49
2021/12/12 05:24:22;;;;;;;7.57;5.97;;;3.80;85.70;;;;;;5004041;28;20856;-49
2021/12/12 05:26:56;;;;;;;8.00;4.60;;;3.80;85.70;;;;;;5023999;28;20473;-49
2021/12/12 05:29:27;;;;;;;7.97;5.20;;;3.80;85.70;;;;;;5030433;28;20454;-49
2021/12/12 05:31:57;;;;;;;7.60;5.03;;;3.80;85.60;;;;;;5010456;28;21906;-49
2021/12/12 05:34:28;;;;;;;16.83;5.93;;;3.80;85.60;;;;;;5026199;28;20951;-49
2021/12/12 05:36:57;;;;;;;9.10;4.70;;;3.80;85.50;;;;;;5028166;28;20451;-49
2021/12/12 05:39:25;;;;;;;9.43;5.67;;;3.80;85.60;;;;;;5010385;28;20516;-49
2021/12/12 05:41:53;;;;;;;8.13;4.83;;;3.80;85.60;;;;;;5027672;28;20863;-49
2021/12/12 05:44:23;;;;;;;6.10;4.83;;;3.80;85.60;;;;;;5027886;28;20455;-49
2021/12/12 05:46:54;;;;;;;12.83;5.63;;;3.80;85.60;;;;;;5007503;28;20459;-49
2021/12/12 05:49:21;;;;;;;7.60;6.00;;;3.80;85.50;;;;;;5025537;28;20955;-49
2021/12/12 05:51:48;;;;;;;7.03;5.17;;;3.80;85.50;;;;;;5010829;28;20456;-49
2021/12/12 05:54:16;;;;;;;6.63;5.77;;;3.80;85.50;;;;;;5022699;28;20510;-49
2021/12/12 05:56:43;;;;;;;6.30;5.70;;;3.80;85.40;;;;;;5023812;28;20551;-49
2021/12/12 05:59:11;;;;;;;5.33;4.43;;;3.80;85.20;;;;;;5024597;28;21093;-49
2021/12/12 06:01:40;;;;;;;7.20;4.70;;;3.80;85.30;;;;;;5026540;28;20455;-49
2021/12/12 06:04:07;;;;;;;9.70;5.63;;;3.80;85.30;;;;;;5009249;28;20855;-49
2021/12/12 06:06:38;;;;;;;7.37;5.70;;;3.80;85.30;;;;;;5010798;28;20773;-49
2021/12/12 06:09:09;;;;;;;8.47;5.73;;;3.80;85.40;;;;;;5027045;28;20471;-49
2021/12/12 06:11:38;;;;;;;7.30;5.70;;;3.80;85.40;;;;;;5011380;28;20458;-49
2021/12/12 06:14:07;;;;;;;7.40;4.50;;;3.80;85.40;;;;;;5024029;28;20517;-49
2021/12/12 06:16:35;;;;;;;8.90;5.20;;;3.80;85.40;;;;;;5027606;28;20451;-49
2021/12/12 06:19:16;;;;;;;6.60;5.27;;;3.80;85.40;;;;;;5019904;28;20520;-49
2021/12/12 06:21:45;;;;;;;9.67;4.90;;;3.80;85.40;;;;;;5020870;28;20446;-49
2021/12/12 06:24:12;;;;;;;9.50;6.10;;;3.80;85.40;;;;;;5027948;28;20455;-49
2021/12/12 06:26:39;;;;;;;6.50;4.90;;;3.80;85.50;;;;;;5026215;28;20857;-49
2021/12/12 06:29:07;;;;;;;6.60;5.17;;;3.80;85.50;;;;;;5024738;28;20460;-49
2021/12/12 06:31:43;;;;;;;7.33;4.37;;;3.80;85.40;;;;;;5028295;28;20456;-49
2021/12/12 06:34:11;;;;;;;6.27;4.37;;;3.80;85.40;;;;;;5025970;28;20468;-49
2021/12/12 06:36:39;;;;;;;4.23;3.83;;;3.90;85.40;;;;;;5026223;28;20487;-49
2021/12/12 06:39:09;;;;;;;5.50;4.50;;;3.90;85.40;;;;;;5011976;28;20478;-49
2021/12/12 06:41:37;;;;;;;10.90;4.70;;;3.90;85.50;;;;;;5025370;28;20446;-49
2021/12/12 06:44:07;;;;;;;7.30;4.20;;;3.90;85.50;;;;;;5009644;28;20526;-49
2021/12/12 06:46:35;;;;;;;7.03;4.23;;;3.80;85.60;;;;;;5013598;28;20478;-49
2021/12/12 06:49:06;;;;;;;5.63;4.50;;;3.90;85.60;;;;;;5012864;28;20464;-49
2021/12/12 06:51:36;;;;;;;6.10;4.40;;;3.90;85.50;;;;;;5023929;28;20458;-49
2021/12/12 06:54:04;;;;;;;6.73;3.90;;;3.90;85.50;;;;;;5030629;28;20878;-49
2021/12/12 06:56:31;;;;;;;5.60;3.93;;;3.90;85.50;;;;;;5025823;28;20467;-49
2021/12/12 06:59:00;;;;;;;6.10;4.50;;;3.90;85.50;;;;;;5011776;28;20491;-49
2021/12/12 07:01:31;;;;;;;8.97;6.00;;;3.90;85.50;;;;;;5007281;28;20743;-49
2021/12/12 07:03:58;;;;;;;5.03;3.80;;;3.90;85.50;;;;;;5019876;28;20535;-49
2021/12/12 07:06:28;;;;;;;7.07;4.30;;;3.90;85.50;;;;;;5028775;28;20454;-49
2021/12/12 07:08:59;;;;;;;5.80;4.50;;;3.90;85.50;;;;;;5022803;28;20904;-49
2021/12/12 07:11:27;;;;;;;9.90;4.60;;;3.90;85.40;;;;;;4995748;28;20468;-49
2021/12/12 07:13:55;;;;;;;6.63;3.87;;;3.90;85.40;;;;;;5008599;28;20463;-49
2021/12/12 07:16:23;;;;;;;5.87;3.87;;;4.00;85.20;;;;;;5025311;28;20507;-49
2021/12/12 07:18:52;;;;;;;3.90;3.43;;;4.00;85.10;;;;;;5023905;28;20599;-49
2021/12/12 07:21:19;;;;;;;4.20;3.80;;;4.00;84.90;;;;;;5011704;28;20444;-49
2021/12/12 07:23:47;;;;;;;5.40;3.90;;;4.00;85.10;;;;;;5024225;28;20461;-49
2021/12/12 07:26:16;;;;;;;8.00;3.60;;;4.00;85.10;;;;;;5014235;28;20466;-49
2021/12/12 07:28:44;;;;;;;5.90;3.73;;;4.00;84.90;;;;;;5024731;28;21068;-49
2021/12/12 07:31:16;;;;;;;7.03;3.27;;;4.00;84.80;;;;;;5008566;28;20529;-49
2021/12/12 07:33:44;;;;;;;5.43;3.63;;;4.00;84.60;;;;;;5018528;28;20452;-49
2021/12/12 07:36:13;;;;;;;6.03;3.60;;;4.00;84.60;;;;;;5009252;28;20466;-49
2021/12/12 07:38:46;;;;;;;5.63;4.00;;;4.00;84.60;;;;;;5009691;28;20451;-49
2021/12/12 07:41:17;;;;;;;7.03;3.43;;;4.00;84.70;;;;;;5025101;28;20936;-49
2021/12/12 07:43:43;;;;;;;5.50;3.37;;;4.00;84.70;;;;;;5020408;28;20497;-49
2021/12/12 07:46:10;;;;;;;5.17;4.30;;;4.00;84.70;;;;;;5029305;28;20598;-49
2021/12/12 07:48:39;;;;;;;4.10;3.20;;;4.10;84.70;;;;;;5028053;28;20463;-49
2021/12/12 07:51:08;;;;;;;5.33;3.60;;;4.10;84.40;;;;;;5023599;28;20893;-49
2021/12/12 07:53:35;;;;;;;4.27;3.80;;;4.10;84.50;;;;;;5014303;28;20479;-49
2021/12/12 07:56:03;;;;;;;4.87;4.00;;;4.10;84.70;;;;;;5024818;28;20447;-49
2021/12/12 07:58:30;;;;;;;4.10;3.23;;;4.10;84.70;;;;;;5022441;28;20472;-49
2021/12/12 08:00:59;;;;;;;15.63;4.60;;;4.10;84.70;;;;;;5021165;28;20493;-49
2021/12/12 08:03:30;;;;;;;6.17;3.40;;;4.10;84.70;;;;;;5007337;28;20915;-49
2021/12/12 08:06:00;;;;;;;5.73;3.20;;;4.10;84.70;;;;;;5026400;28;20447;-49
2021/12/12 08:08:29;;;;;;;5.13;3.80;;;4.10;84.80;;;;;;5022712;28;20463;-49
2021/12/12 08:10:59;;;;;;;7.23;4.70;;;4.20;84.90;;;;;;5018744;28;20975;-49
2021/12/12 08:13:26;;;;;;;3.57;3.20;;;4.20;84.70;;;;;;5021861;28;20454;-49
2021/12/12 08:15:54;;;;;;;6.20;3.33;;;4.20;84.70;;;;;;5008186;28;20843;-49
2021/12/12 08:18:21;;;;;;;4.20;3.30;;;4.20;84.50;;;;;;5007302;28;20464;-49
2021/12/12 08:20:50;;;;;;;11.57;4.07;;;4.20;84.40;;;;;;5010447;28;21117;-49
2021/12/12 08:23:19;;;;;;;6.67;3.47;;;4.30;84.20;;;;;;5024813;28;20583;-49
2021/12/12 08:25:47;;;;;;;5.93;3.33;;;4.30;84.20;;;;;;5024257;28;20911;-49
2021/12/12 08:28:15;;;;;;;3.87;3.47;;;4.40;83.80;;;;;;5023188;28;20454;-49
2021/12/12 08:30:44;;;;;;;3.83;3.40;;;4.30;83.90;;;;;;5025673;28;20450;-49
2021/12/12 08:33:12;;;;;;;12.17;3.60;;;4.40;84.00;;;;;;5026668;28;20924;-49
2021/12/12 08:35:40;;;;;;;4.70;3.50;;;4.30;84.00;;;;;;5023069;28;20452;-49
2021/12/12 08:38:09;;;;;;;4.43;3.60;;;4.40;83.90;;;;;;5008500;28;20455;-49
2021/12/12 08:40:43;;;;;;;4.50;3.37;;;4.40;83.80;;;;;;5013863;28;20487;-49
2021/12/12 08:43:13;;;;;;;5.60;3.90;;;4.40;83.50;;;;;;5011903;28;20486;-49
2021/12/12 08:45:47;;;;;;;3.83;3.53;;;4.40;83.50;;;;;;5009943;28;20945;-49
2021/12/12 08:48:18;;;;;;;7.47;3.20;;;4.40;83.60;;;;;;5025269;28;20474;-49
2021/12/12 08:50:56;;;;;;;12.80;3.57;;;4.40;83.40;;;;;;5024848;28;20458;-49
2021/12/12 08:53:23;;;;;;;4.43;3.13;;;4.40;83.60;;;;;;5020727;28;20460;-49
2021/12/12 08:55:54;;;;;;;7.87;3.60;;;4.40;83.60;;;;;;5018358;28;20464;-49
2021/12/12 08:58:28;;;;;;;4.50;2.90;;;4.50;83.80;;;;;;5004496;28;20478;-49
2021/12/12 09:01:09;;;;;;;7.07;3.60;;;4.50;83.80;;;;;;5007038;28;20497;-49
2021/12/12 09:03:51;;;;;;;3.43;3.10;;;4.50;83.90;;;;;;5021601;28;20512;-49
2021/12/12 09:06:19;;;;;;;6.10;3.23;;;4.50;84.00;;;;;;5024263;28;20451;-49
2021/12/12 09:09:04;;;;;;;9.00;3.33;;;4.50;84.00;;;;;;5023972;28;21061;-49
2021/12/12 09:11:34;;;;;;;6.27;4.20;;;4.60;84.00;;;;;;5019706;28;20455;-49
2021/12/12 09:14:16;;;;;;;4.10;3.33;;;4.60;84.00;;;;;;5026041;28;20470;-49
2021/12/12 09:16:53;;;;;;;4.57;3.87;;;4.60;84.10;;;;;;5001579;28;20460;-49
2021/12/12 09:19:28;;;;;;;7.87;4.20;;;4.60;84.20;;;;;;5028026;28;21062;-49
2021/12/12 09:22:05;;;;;;;5.83;4.27;;;4.60;84.40;;;;;;5006319;28;20502;-49
2021/12/12 09:24:43;;;;;;;5.80;3.77;;;4.60;84.50;;;;;;5019240;28;20455;-49
2021/12/12 09:27:17;;;;;;;9.67;4.67;;;4.70;85.10;;;;;;5006980;28;20521;-49
2021/12/12 09:29:53;;;;;;;6.90;4.90;;;4.80;84.90;;;;;;5025954;28;20897;-49
2021/12/12 09:32:32;;;;;;;7.23;4.07;;;4.80;85.10;;;;;;5023351;28;20467;-49
2021/12/12 09:34:58;;;;;;;6.63;3.83;;;4.80;85.00;;;;;;5021135;28;20474;-49
2021/12/12 09:37:37;;;;;;;8.00;3.83;;;4.80;85.50;;;;;;5026693;28;21011;-49
2021/12/12 09:40:35;;;;;;;5.77;3.60;;;4.70;85.70;;;;;;5007675;28;20493;-49
2021/12/12 09:43:02;;;;;;;6.33;3.40;;;4.70;86.60;;;;;;5021087;28;20848;-49
2021/12/12 09:45:37;;;;;;;5.97;3.57;;;4.60;86.70;;;;;;5024133;28;20938;-50
2021/12/12 09:51:47;;;;;;;4.57;3.50;;;4.60;87.40;;;;;;5023253;28;20459;-50
2021/12/12 09:54:25;;;;;;;8.03;3.80;;;4.60;87.40;;;;;;5022299;28;20463;-50
2021/12/12 09:57:15;;;;;;;4.77;3.83;;;4.60;87.50;;;;;;5007160;28;20477;-49
2021/12/12 10:00:03;;;;;;;7.03;4.70;;;4.60;87.70;;;;;;5003389;28;20875;-50
2021/12/12 10:02:41;;;;;;;8.67;4.30;;;4.60;88.00;;;;;;5015769;28;20463;-49
2021/12/12 10:05:24;;;;;;;10.40;4.17;;;4.60;88.10;;;;;;5006548;28;20703;-49
2021/12/12 10:08:02;;;;;;;14.13;3.80;;;4.70;88.30;;;;;;5005639;28;20475;-49
2021/12/12 10:10:56;;;;;;;8.30;4.10;;;4.70;88.30;;;;;;5015095;28;20468;-50
2021/12/12 10:13:46;;;;;;;5.03;3.60;;;4.70;88.20;;;;;;5023383;28;20467;-49
2021/12/12 10:16:13;;;;;;;8.50;3.90;;;4.80;88.10;;;;;;5021689;28;20460;-49
2021/12/12 10:18:56;;;;;;;5.57;3.90;;;4.80;88.20;;;;;;5020164;28;20466;-47
2021/12/12 10:21:56;;;;;;;5.60;3.80;;;4.80;88.30;;;;;;5004239;28;20502;-50
2021/12/12 10:24:35;;;;;;;6.70;4.10;;;4.80;88.40;;;;;;5005982;28;20471;-50
2021/12/12 10:27:26;;;;;;;4.77;3.93;;;4.80;88.60;;;;;;5022094;28;20455;-48
2021/12/12 10:30:01;;;;;;;4.37;3.83;;;4.80;88.70;;;;;;5023078;28;20467;-48
2021/12/12 10:32:32;;;;;;;4.00;3.60;;;4.90;88.70;;;;;;5006032;28;20466;-48
2021/12/12 10:35:13;;;;;;;5.90;4.10;;;4.90;88.80;;;;;;5007748;28;20452;-49
2021/12/12 10:37:50;;;;;;;4.80;3.67;;;4.90;89.10;;;;;;5008520;28;20449;-49
2021/12/12 10:40:37;;;;;;;8.00;3.30;;;5.00;89.00;;;;;;5026331;28;20484;-49
2021/12/12 10:43:12;;;;;;;9.20;5.37;;;5.00;89.20;;;;;;5024230;28;20936;-48
2021/12/12 10:45:49;;;;;;;6.10;4.20;;;5.10;89.20;;;;;;5020756;28;20478;-48
2021/12/12 10:48:19;;;;;;;7.23;3.13;;;5.00;89.10;;;;;;5025021;28;20452;-48
2021/12/12 10:51:00;;;;;;;5.83;3.60;;;5.10;89.40;;;;;;5022576;28;20460;-48
2021/12/12 10:53:39;;;;;;;5.13;4.00;;;5.10;89.40;;;;;;5012514;28;20518;-48
2021/12/12 10:56:15;;;;;;;4.97;3.23;;;5.10;89.50;;;;;;5026249;28;20824;-48
2021/12/12 10:58:49;;;;;;;7.90;4.30;;;5.00;89.60;;;;;;5024467;28;20948;-48
2021/12/12 11:01:32;;;;;;;6.13;3.63;;;5.00;89.40;;;;;;5023562;28;20522;-49
2021/12/12 11:04:31;;;;;;;12.27;4.13;;;5.10;89.40;;;;;;5025049;28;20530;-48
2021/12/12 11:07:04;;;;;;;6.07;3.93;;;5.10;89.10;;;;;;5010846;28;20454;-48
2021/12/12 11:09:40;;;;;;;4.47;3.20;;;5.10;89.30;;;;;;5008039;28;20548;-48
2021/12/12 11:12:20;;;;;;;4.00;3.30;;;5.10;89.20;;;;;;5013202;28;20921;-49
2021/12/12 11:15:21;;;;;;;4.97;3.50;;;5.10;89.40;;;;;;5022038;28;20475;-49
2021/12/12 11:17:52;;;;;;;5.20;4.43;;;5.20;89.20;;;;;;5025350;28;20466;-48
2021/12/12 11:20:24;;;;;;;12.17;4.53;;;5.20;88.50;;;;;;5007387;28;21269;-48
2021/12/12 11:23:04;;;;;;;15.17;4.50;;;5.20;88.60;;;;;;5023646;28;20925;-49
2021/12/12 11:25:42;;;;;;;6.00;3.70;;;5.10;89.00;;;;;;5004629;28;20448;-48
2021/12/12 11:28:20;;;;;;;6.30;3.97;;;5.10;89.30;;;;;;5007428;28;20447;-48
2021/12/12 11:30:50;;;;;;;6.10;4.30;;;5.20;88.70;;;;;;5023673;28;20505;-48
2021/12/12 11:33:19;;;;;;;7.27;5.00;;;5.20;88.50;;;;;;5021653;28;20464;-49
2021/12/12 11:35:50;;;;;;;8.60;4.50;;;5.20;88.90;;;;;;5026096;28;20457;-48
2021/12/12 11:38:41;;;;;;;8.60;6.00;;;5.20;89.10;;;;;;5004795;28;20840;-49
2021/12/12 11:41:33;;;;;;;8.10;4.70;;;5.10;89.20;;;;;;5024858;28;20479;-48
2021/12/12 11:44:21;;;;;;;10.23;5.27;;;5.20;89.20;;;;;;5022125;28;20447;-49
2021/12/12 11:47:04;;;;;;;9.53;5.27;;;5.20;89.30;;;;;;5024864;28;20959;-49
2021/12/12 11:49:48;;;;;;;7.43;6.53;;;5.20;89.40;;;;;;5003725;28;20845;-49
2021/12/12 11:52:40;;;;;;;5.87;5.07;;;5.20;89.40;;;;;;5010653;28;20451;-48
2021/12/12 11:55:38;;;;;;;6.10;4.93;;;5.20;89.40;;;;;;5018167;28;20459;-48
2021/12/12 11:58:21;;;;;;;5.93;5.33;;;5.20;89.60;;;;;;5023300;28;20475;-49
2021/12/12 12:01:12;;;;;;;7.83;7.03;;;5.20;89.40;;;;;;5023684;28;20566;-49
2021/12/12 12:04:20;;;;;;;7.57;6.10;;;5.30;89.30;;;;;;5021291;28;20478;-49
2021/12/12 12:07:37;;;;;;;10.07;6.17;;;5.30;89.20;;;;;;5021164;28;20450;-48
2021/12/12 12:10:26;;;;;;;9.00;6.27;;;5.30;89.20;;;;;;4925285;29;20460;-48
2021/12/12 12:13:24;;;;;;;10.87;6.87;;;5.40;89.00;;;;;;5018937;28;20454;-48
2021/12/12 12:16:02;;;;;;;8.20;5.53;;;5.30;89.20;;;;;;5022099;28;20458;-48
2021/12/12 12:18:38;;;;;;;7.13;5.40;;;5.40;89.20;;;;;;5024328;28;20455;-48
2021/12/12 12:21:33;;;;;;;7.50;6.37;;;5.40;89.20;;;;;;5009651;28;20483;-48
2021/12/12 12:24:23;;;;;;;11.20;4.90;;;5.40;89.20;;;;;;5027573;28;20443;-48
2021/12/12 12:27:01;;;;;;;9.30;5.57;;;5.40;89.40;;;;;;5023421;28;20526;-48
2021/12/12 12:29:28;;;;;;;11.70;6.17;;;5.50;89.20;;;;;;5024155;28;20837;-48
2021/12/12 12:32:04;;;;;;;10.30;5.23;;;5.50;89.40;;;;;;5006711;28;20560;-48
2021/12/12 12:34:43;;;;;;;9.23;6.90;;;5.50;89.80;;;;;;5009722;28;20452;-48
2021/12/12 12:37:31;;;;;;;7.73;5.03;;;5.60;89.50;;;;;;5019091;28;20459;-48
2021/12/12 12:40:31;;;;;;;10.67;5.80;;;5.60;89.40;;;;;;5020207;28;20837;-49
2021/12/12 12:43:41;;;;;;;6.10;5.00;;;5.70;89.50;;;;;;5023077;28;20448;-49
2021/12/12 12:46:37;;;;;;;7.20;6.00;;;5.70;89.30;;;;;;5020436;28;20461;-49
2021/12/12 12:49:24;;;;;;;8.53;7.70;;;5.70;89.40;;;;;;5023321;28;20470;-49
2021/12/12 12:52:03;;;;;;;8.87;5.03;;;5.80;89.10;;;;;;4984859;28;20459;-49
2021/12/12 12:54:31;;;;;;;10.63;5.60;;;5.80;88.90;;;;;;5025961;28;20454;-49
2021/12/12 12:57:23;;;;;;;9.20;5.37;;;5.80;89.00;;;;;;5021230;28;20987;-49
2021/12/12 13:00:13;;;;;;;7.03;5.27;;;5.80;89.00;;;;;;5023133;28;20907;-49
2021/12/12 13:03:07;;;;;;;6.27;4.50;;;5.80;89.30;;;;;;5014610;28;20454;-49
2021/12/12 13:05:40;;;;;;;5.53;3.80;;;5.80;89.50;;;;;;5025993;28;20805;-49
2021/12/12 13:09:04;;;;;;;8.43;4.90;;;5.80;89.80;;;;;;5028003;28;20459;-49
2021/12/12 13:11:45;;;;;;;8.23;3.70;;;5.80;89.70;;;;;;4946607;29;20463;-49
2021/12/12 13:14:39;;;;;;;6.03;4.43;;;5.90;89.80;;;;;;4932868;29;20465;-49
2021/12/12 13:17:14;;;;;;;6.43;3.93;;;5.90;89.60;;;;;;5002010;28;20444;-49
2021/12/12 13:20:09;;;;;;;9.07;4.80;;;5.90;89.50;;;;;;5010845;28;20446;-49
2021/12/12 13:23:02;;;;;;;8.60;4.70;;;5.90;89.60;;;;;;5029918;28;20960;-49
2021/12/12 13:25:42;;;;;;;5.03;3.83;;;5.90;89.70;;;;;;5012698;28;20977;-47
2021/12/12 13:28:18;;;;;;;5.87;3.77;;;5.90;89.50;;;;;;5025528;28;20462;-47
2021/12/12 13:31:06;;;;;;;7.87;4.93;;;5.90;89.60;;;;;;5029815;28;20823;-48
2021/12/12 13:33:46;;;;;;;8.77;5.37;;;5.90;89.70;;;;;;5011738;28;20506;-47
2021/12/12 13:36:49;;;;;;;12.47;8.40;;;6.00;89.70;;;;;;5009733;28;20451;-50
2021/12/12 13:39:24;;;;;;;7.80;4.20;;;6.10;89.20;;;;;;5027900;28;20818;-47
2021/12/12 13:42:10;;;;;;;7.07;4.83;;;6.10;89.30;;;;;;5013155;28;20927;-48
2021/12/12 13:45:09;;;;;;;5.57;3.90;;;6.10;89.30;;;;;;5023922;28;20447;-48
2021/12/12 13:47:42;;;;;;;5.50;4.37;;;6.10;89.20;;;;;;5029050;28;20466;-48
2021/12/12 13:50:11;;;;;;;6.07;4.37;;;6.10;88.70;;;;;;5026985;28;20455;-48
2021/12/12 13:53:10;;;;;;;4.37;3.80;;;6.10;89.10;;;;;;5029604;28;20442;-48
2021/12/12 13:55:53;;;;;;;4.50;3.50;;;6.20;89.10;;;;;;4967317;28;20456;-48
2021/12/12 13:58:29;;;;;;;5.03;3.90;;;6.20;88.80;;;;;;5007351;28;20888;-48
2021/12/12 14:01:16;;;;;;;7.60;4.90;;;6.20;88.80;;;;;;5029426;28;20820;-48
2021/12/12 14:03:52;;;;;;;3.47;3.17;;;6.20;88.80;;;;;;5025573;28;20972;-48
2021/12/12 14:06:21;;;;;;;5.23;3.20;;;6.30;88.80;;;;;;5025975;28;20454;-48